createdAt,value
2018-05-04T00:00:13.641Z,7.11
2018-05-04T00:03:16.195Z,7.07
2018-05-04T00:06:18.677Z,7.07
2018-05-04T00:09:21.097Z,6.97
2018-05-04T00:12:23.681Z,6.94
2018-05-04T00:15:26.155Z,6.91
2018-05-04T00:18:28.707Z,6.90
2018-05-04T00:21:31.235Z,6.89
2018-05-04T00:24:33.695Z,6.88
2018-05-04T00:27:36.284Z,6.83
2018-05-04T00:30:38.724Z,6.78
2018-05-04T00:33:41.209Z,6.82
2018-05-04T00:36:43.716Z,6.78
2018-05-04T00:39:46.175Z,6.73
2018-05-04T00:42:48.641Z,6.73
2018-05-04T00:45:51.106Z,6.70
2018-05-04T00:48:53.546Z,6.65
2018-05-04T00:51:56.041Z,6.64
2018-05-04T00:54:58.565Z,6.74
2018-05-04T00:58:01.005Z,6.70
2018-05-04T01:01:03.559Z,6.63
2018-05-04T01:04:06.011Z,6.55
2018-05-04T01:07:08.491Z,6.49
2018-05-04T01:10:11.037Z,6.46
2018-05-04T01:13:13.501Z,6.49
2018-05-04T01:16:15.987Z,6.42
2018-05-04T01:19:18.461Z,6.35
2018-05-04T01:22:20.905Z,6.25
2018-05-04T01:25:23.426Z,6.24
2018-05-04T01:28:25.854Z,6.20
2018-05-04T01:31:28.361Z,6.17
2018-05-04T01:34:30.926Z,6.15
2018-05-04T01:37:33.354Z,6.09
2018-05-04T01:40:35.826Z,6.09
2018-05-04T01:43:38.271Z,6.04
2018-05-04T01:46:40.768Z,5.99
2018-05-04T01:49:43.310Z,6.01
2018-05-04T01:52:45.817Z,5.98
2018-05-04T01:55:48.297Z,5.98
2018-05-04T01:58:50.731Z,5.97
2018-05-04T02:01:53.200Z,5.96
2018-05-04T02:04:55.743Z,5.90
2018-05-04T02:07:58.218Z,5.86
2018-05-04T02:11:01.909Z,5.80
2018-05-04T02:14:04.398Z,5.80
2018-05-04T02:17:06.917Z,5.77
2018-05-04T02:20:09.357Z,5.72
2018-05-04T02:23:11.827Z,5.69
2018-05-04T02:26:14.297Z,5.65
2018-05-04T02:29:16.757Z,5.69
2018-05-04T02:32:19.226Z,5.89
2018-05-04T02:35:21.778Z,5.94
2018-05-04T02:38:24.265Z,6.02
2018-05-04T02:41:26.748Z,6.00
2018-05-04T02:44:29.284Z,5.99
2018-05-04T02:47:31.838Z,6.00
2018-05-04T02:50:34.310Z,6.06
2018-05-04T02:53:36.775Z,6.12
2018-05-04T02:56:39.211Z,6.15
2018-05-04T02:59:41.704Z,6.15
2018-05-04T03:02:44.169Z,6.25
2018-05-04T03:05:46.753Z,6.20
2018-05-04T03:08:49.357Z,6.16
2018-05-04T03:11:51.827Z,6.14
2018-05-04T03:14:54.303Z,6.13
2018-05-04T03:17:56.757Z,6.08
2018-05-04T03:20:59.205Z,6.06
2018-05-04T03:24:01.691Z,6.02
2018-05-04T03:27:04.192Z,6.05
2018-05-04T03:30:06.792Z,6.02
2018-05-04T03:33:09.265Z,6.08
2018-05-04T03:36:11.729Z,5.99
2018-05-04T03:39:14.187Z,6.04
2018-05-04T03:42:16.679Z,5.98
2018-05-04T03:45:19.128Z,5.97
2018-05-04T03:48:21.798Z,5.95
2018-05-04T03:51:24.282Z,5.96
2018-05-04T03:54:26.781Z,5.98
2018-05-04T03:57:41.108Z,6.01
2018-05-04T04:00:55.482Z,6.02
2018-05-04T04:04:08.810Z,6.13
2018-05-04T04:07:11.325Z,6.38
2018-05-04T04:10:13.872Z,6.65
2018-05-04T04:13:16.409Z,7.01
2018-05-04T04:16:18.843Z,7.53
2018-05-04T04:19:21.318Z,8.01
2018-05-04T04:22:23.804Z,8.35
2018-05-04T04:25:26.264Z,8.64
2018-05-04T04:28:28.749Z,9.05
2018-05-04T04:31:32.128Z,9.56
2018-05-04T04:34:34.724Z,10.15
2018-05-04T04:37:37.235Z,10.68
2018-05-04T04:40:39.749Z,11.16
2018-05-04T04:43:42.209Z,11.16
2018-05-04T04:46:44.703Z,11.12
2018-05-04T04:49:47.189Z,8.81
2018-05-04T04:52:49.853Z,8.44
2018-05-04T04:55:52.315Z,9.66
2018-05-04T04:58:54.873Z,9.74
2018-05-04T05:01:57.349Z,9.85
2018-05-04T05:04:59.863Z,10.79
2018-05-04T05:08:02.294Z,10.56
2018-05-04T05:11:04.770Z,11.71
2018-05-04T05:14:07.259Z,11.56
2018-05-04T05:17:09.696Z,11.28
2018-05-04T05:20:12.209Z,10.74
2018-05-04T05:23:14.664Z,10.35
2018-05-04T05:26:17.241Z,10.80
2018-05-04T05:29:19.730Z,11.64
2018-05-04T05:32:22.226Z,11.05
2018-05-04T05:35:24.670Z,11.94
2018-05-04T05:38:27.167Z,12.63
2018-05-04T05:41:29.734Z,13.62
2018-05-04T05:44:32.185Z,14.05
2018-05-04T05:47:34.676Z,14.58
2018-05-04T05:50:37.151Z,15.29
2018-05-04T05:53:39.631Z,14.92
2018-05-04T05:56:42.068Z,14.65
2018-05-04T05:59:44.631Z,13.69
2018-05-04T06:02:47.178Z,14.17
2018-05-04T06:05:49.600Z,14.28
2018-05-04T06:08:52.122Z,13.75
2018-05-04T06:11:54.602Z,13.66
2018-05-04T06:14:57.205Z,13.64
2018-05-04T06:17:59.683Z,13.26
2018-05-04T06:21:02.184Z,13.68
2018-05-04T06:24:04.589Z,14.00
2018-05-04T06:27:07.055Z,14.28
2018-05-04T06:30:09.536Z,14.21
2018-05-04T06:33:11.995Z,14.01
2018-05-04T06:36:14.538Z,14.19
2018-05-04T06:39:17.041Z,14.17
2018-05-04T06:42:19.525Z,14.12
2018-05-04T06:45:22.000Z,13.76
2018-05-04T06:48:24.536Z,13.93
2018-05-04T06:51:27.089Z,14.21
2018-05-04T06:54:29.560Z,13.37
2018-05-04T06:57:32.021Z,13.49
2018-05-04T07:00:34.531Z,13.45
2018-05-04T07:03:37.008Z,13.15
2018-05-04T07:06:39.553Z,13.06
2018-05-04T07:09:42.119Z,13.03
2018-05-04T07:12:44.680Z,13.02
2018-05-04T07:15:47.176Z,12.86
2018-05-04T07:18:49.641Z,12.81
2018-05-04T07:21:52.051Z,12.96
2018-05-04T07:24:54.530Z,12.94
2018-05-04T07:27:57.084Z,12.77
2018-05-04T07:30:59.645Z,12.14
2018-05-04T07:34:02.098Z,12.61
2018-05-04T07:37:04.553Z,12.60
2018-05-04T07:40:07.023Z,12.93
2018-05-04T07:43:09.484Z,12.93
2018-05-04T07:46:11.973Z,13.24
2018-05-04T07:49:14.513Z,13.47
2018-05-04T07:52:16.993Z,13.15
2018-05-04T07:55:19.483Z,13.54
2018-05-04T07:58:21.993Z,13.58
2018-05-04T08:01:24.438Z,13.73
2018-05-04T08:04:26.931Z,13.83
2018-05-04T08:07:29.387Z,13.02
2018-05-04T08:10:31.937Z,13.79
2018-05-04T08:13:53.682Z,14.04
2018-05-04T08:16:56.229Z,14.28
2018-05-04T08:19:58.900Z,14.13
2018-05-04T08:23:01.341Z,14.40
2018-05-04T08:26:03.883Z,14.35
2018-05-04T08:29:06.337Z,14.26
2018-05-04T08:32:08.826Z,14.39
2018-05-04T08:35:11.363Z,14.48
2018-05-04T08:38:13.741Z,14.70
2018-05-04T08:41:16.224Z,14.36
2018-05-04T08:44:18.680Z,14.52
2018-05-04T08:47:21.155Z,14.60
2018-05-04T08:50:23.595Z,14.65
2018-05-04T08:53:26.100Z,14.59
2018-05-04T08:56:28.605Z,14.56
2018-05-04T08:59:31.146Z,14.72
2018-05-04T09:02:33.610Z,15.00
2018-05-04T09:05:36.193Z,15.11
2018-05-04T09:08:38.565Z,15.33
2018-05-04T09:11:41.011Z,15.00
2018-05-04T09:14:43.506Z,15.24
2018-05-04T09:17:45.955Z,15.27
2018-05-04T09:20:48.426Z,15.28
2018-05-04T09:23:51.112Z,15.46
2018-05-04T09:26:53.516Z,15.51
2018-05-04T09:29:55.991Z,15.80
2018-05-04T09:32:58.467Z,15.84
2018-05-04T09:36:00.936Z,15.78
2018-05-04T09:39:03.420Z,15.80
2018-05-04T09:42:05.892Z,16.04
2018-05-04T09:45:08.503Z,16.15
2018-05-04T09:48:10.997Z,16.28
2018-05-04T09:51:13.521Z,16.05
2018-05-04T09:54:16.022Z,15.69
2018-05-04T09:57:18.511Z,16.00
2018-05-04T10:00:20.981Z,15.98
2018-05-04T10:03:23.468Z,16.08
2018-05-04T10:06:25.966Z,16.42
2018-05-04T10:09:28.453Z,16.47
2018-05-04T10:12:30.983Z,16.65
2018-05-04T10:15:33.423Z,17.03
2018-05-04T10:18:35.886Z,16.81
2018-05-04T10:21:38.329Z,16.52
2018-05-04T10:24:40.852Z,16.48
2018-05-04T10:27:43.312Z,16.52
2018-05-04T10:30:45.793Z,16.56
2018-05-04T10:33:48.287Z,16.72
2018-05-04T10:36:50.734Z,16.86
2018-05-04T10:39:53.229Z,16.55
2018-05-04T10:42:55.714Z,16.78
2018-05-04T10:45:58.248Z,16.94
2018-05-04T10:49:00.707Z,16.52
2018-05-04T10:52:03.208Z,16.39
2018-05-04T10:55:05.686Z,16.82
2018-05-04T10:58:08.143Z,16.85
2018-05-04T11:01:10.623Z,16.79
2018-05-04T11:04:13.363Z,16.42
2018-05-04T11:07:15.808Z,15.96
2018-05-04T11:10:18.289Z,15.95
2018-05-04T11:13:20.757Z,16.54
2018-05-04T11:16:23.242Z,16.28
2018-05-04T11:19:25.811Z,16.93
2018-05-04T11:22:28.328Z,16.90
2018-05-04T11:25:30.905Z,16.72
2018-05-04T11:28:33.292Z,16.78
2018-05-04T11:31:35.852Z,16.73
2018-05-04T11:34:38.292Z,17.13
2018-05-04T11:37:40.829Z,17.25
2018-05-04T11:40:43.312Z,16.76
2018-05-04T11:43:45.787Z,16.60
2018-05-04T11:46:48.268Z,16.47
2018-05-04T11:49:50.756Z,16.74
2018-05-04T11:52:53.285Z,16.91
2018-05-04T11:55:55.761Z,17.30
2018-05-04T11:58:58.268Z,17.24
2018-05-04T12:02:00.790Z,17.37
2018-05-04T12:05:03.220Z,17.10
2018-05-04T12:08:05.708Z,16.85
2018-05-04T12:11:08.138Z,17.04
2018-05-04T12:14:10.613Z,16.88
2018-05-04T12:17:13.108Z,17.16
2018-05-04T12:20:15.634Z,17.25
2018-05-04T12:23:18.254Z,17.32
2018-05-04T12:26:20.837Z,17.24
2018-05-04T12:29:23.274Z,17.51
2018-05-04T12:32:25.743Z,17.64
2018-05-04T12:35:28.193Z,17.67
2018-05-04T12:38:30.738Z,17.50
2018-05-04T12:41:33.164Z,17.60
2018-05-04T12:44:35.640Z,17.37
2018-05-04T12:47:38.065Z,17.56
2018-05-04T12:50:40.543Z,17.63
2018-05-04T12:53:43.020Z,17.80
2018-05-04T12:56:45.540Z,17.87
2018-05-04T12:59:48.010Z,17.56
2018-05-04T13:02:50.508Z,17.66
2018-05-04T13:05:52.980Z,17.56
2018-05-04T13:08:55.572Z,17.68
2018-05-04T13:11:58.037Z,17.59
2018-05-04T13:15:00.543Z,17.53
2018-05-04T13:18:03.109Z,17.81
2018-05-04T13:21:05.583Z,17.79
2018-05-04T13:24:08.111Z,18.00
2018-05-04T13:27:10.643Z,17.62
2018-05-04T13:30:13.100Z,17.56
2018-05-04T13:33:15.575Z,17.72
2018-05-04T13:36:18.068Z,17.90
2018-05-04T13:39:20.505Z,17.81
2018-05-04T13:42:22.994Z,17.95
2018-05-04T13:45:25.507Z,17.97
2018-05-04T13:48:28.034Z,18.04
2018-05-04T13:51:30.640Z,18.24
2018-05-04T13:54:33.057Z,18.25
2018-05-04T13:57:35.525Z,18.11
2018-05-04T14:00:38.036Z,18.13
2018-05-04T14:03:40.542Z,17.95
2018-05-04T14:06:43.058Z,18.02
2018-05-04T14:09:45.656Z,18.25
2018-05-04T14:12:48.240Z,18.33
2018-05-04T14:15:50.728Z,18.41
2018-05-04T14:18:53.248Z,18.39
2018-05-04T14:21:55.779Z,18.18
2018-05-04T14:24:58.363Z,18.27
2018-05-04T14:28:00.800Z,18.12
2018-05-04T14:31:03.442Z,18.13
2018-05-04T14:34:05.956Z,18.28
2018-05-04T14:37:08.421Z,18.44
2018-05-04T14:40:10.976Z,18.34
2018-05-04T14:43:13.444Z,17.76
2018-05-04T14:46:15.975Z,18.03
2018-05-04T14:49:18.441Z,17.81
2018-05-04T14:52:21.027Z,17.98
2018-05-04T14:55:23.544Z,18.12
2018-05-04T14:58:26.016Z,18.09
2018-05-04T15:01:28.538Z,17.68
2018-05-04T15:04:31.052Z,18.03
2018-05-04T15:07:33.630Z,18.06
2018-05-04T15:10:36.246Z,18.06
2018-05-04T15:13:38.730Z,18.36
2018-05-04T15:16:41.244Z,18.50
2018-05-04T15:19:43.709Z,18.37
2018-05-04T15:22:46.220Z,18.47
2018-05-04T15:25:48.765Z,18.26
2018-05-04T15:28:51.285Z,18.22
2018-05-04T15:31:53.797Z,18.24
2018-05-04T15:34:56.301Z,17.97
2018-05-04T15:37:58.797Z,17.88
2018-05-04T15:41:01.305Z,17.58
2018-05-04T15:44:03.796Z,17.63
2018-05-04T15:47:06.312Z,17.51
2018-05-04T15:50:14.275Z,17.70
2018-05-04T15:53:16.735Z,17.90
2018-05-04T15:56:19.300Z,17.91
2018-05-04T15:59:21.849Z,17.90
2018-05-04T16:02:24.431Z,17.85
2018-05-04T16:05:26.978Z,17.87
2018-05-04T16:08:29.455Z,17.84
2018-05-04T16:11:31.948Z,17.98
2018-05-04T16:14:34.450Z,17.95
2018-05-04T16:17:37.541Z,17.68
2018-05-04T16:20:40.110Z,17.72
2018-05-04T16:23:42.609Z,17.54
2018-05-04T16:26:45.107Z,17.36
2018-05-04T16:29:47.595Z,17.39
2018-05-04T16:32:50.135Z,17.35
2018-05-04T16:35:52.601Z,17.38
2018-05-04T16:38:55.186Z,17.26
2018-05-04T16:41:57.688Z,17.34
2018-05-04T16:45:00.193Z,17.33
2018-05-04T16:48:08.156Z,17.45
2018-05-04T16:51:10.607Z,17.17
2018-05-04T16:54:13.056Z,17.31
2018-05-04T16:57:15.605Z,17.23
2018-05-04T17:00:18.114Z,17.23
2018-05-04T17:03:20.610Z,17.37
2018-05-04T17:06:23.055Z,17.51
2018-05-04T17:09:25.578Z,17.46
2018-05-04T17:12:28.080Z,17.78
2018-05-04T17:15:30.582Z,18.10
2018-05-04T17:18:33.040Z,18.88
2018-05-04T17:21:35.535Z,19.50
2018-05-04T17:24:38.007Z,20.64
2018-05-04T17:27:40.433Z,21.45
2018-05-04T17:30:42.897Z,21.83
2018-05-04T17:33:45.394Z,21.97
2018-05-04T17:36:47.950Z,21.40
2018-05-04T17:39:50.601Z,20.43
2018-05-04T17:42:53.135Z,20.34
2018-05-04T17:45:55.647Z,19.61
2018-05-04T17:48:58.118Z,19.82
2018-05-04T17:52:00.647Z,19.71
2018-05-04T17:55:03.237Z,19.35
2018-05-04T17:58:05.731Z,20.03
2018-05-04T18:01:08.222Z,18.88
2018-05-04T18:04:10.750Z,17.75
2018-05-04T18:07:13.186Z,17.22
2018-05-04T18:10:15.959Z,17.05
2018-05-04T18:13:18.409Z,16.77
2018-05-04T18:16:20.892Z,16.46
2018-05-04T18:19:23.448Z,16.26
2018-05-04T18:22:25.916Z,15.97
2018-05-04T18:25:28.560Z,15.88
2018-05-04T18:28:31.087Z,15.62
2018-05-04T18:31:33.687Z,15.59
2018-05-04T18:34:36.179Z,15.40
2018-05-04T18:37:38.663Z,15.26
2018-05-04T18:40:41.196Z,15.11
2018-05-04T18:43:43.732Z,14.97
2018-05-04T18:46:46.377Z,14.88
2018-05-04T18:49:48.841Z,14.85
2018-05-04T18:52:51.458Z,14.75
2018-05-04T18:55:54.004Z,14.70
2018-05-04T18:58:56.507Z,14.55
2018-05-04T19:01:58.992Z,14.42
2018-05-04T19:05:01.503Z,14.33
2018-05-04T19:08:04.001Z,14.20
2018-05-04T19:11:06.483Z,14.05
2018-05-04T19:14:09.052Z,13.92
2018-05-04T19:17:11.563Z,13.83
2018-05-04T19:20:14.057Z,13.83
2018-05-04T19:23:16.558Z,13.77
2018-05-04T19:26:19.082Z,13.64
2018-05-04T19:29:21.584Z,13.48
2018-05-04T19:32:24.119Z,13.34
2018-05-04T19:35:26.668Z,13.19
2018-05-04T19:38:29.237Z,13.04
2018-05-04T19:41:31.688Z,12.84
2018-05-04T19:44:34.329Z,12.62
2018-05-04T19:47:36.831Z,12.49
2018-05-04T19:50:39.336Z,12.50
2018-05-04T19:53:41.823Z,12.51
2018-05-04T19:56:44.411Z,12.50
2018-05-04T19:59:46.915Z,12.49
2018-05-04T20:02:49.375Z,12.51
2018-05-04T20:05:51.906Z,12.50
2018-05-04T20:08:54.420Z,12.36
2018-05-04T20:11:56.959Z,12.23
2018-05-04T20:14:59.438Z,12.11
2018-05-04T20:18:01.958Z,11.99
2018-05-04T20:21:04.480Z,11.91
2018-05-04T20:24:07.021Z,11.98
2018-05-04T20:27:09.558Z,12.16
2018-05-04T20:30:12.065Z,12.36
2018-05-04T20:33:14.629Z,12.41
2018-05-04T20:36:17.123Z,12.47
2018-05-04T20:39:19.704Z,12.43
2018-05-04T20:42:22.333Z,12.41
2018-05-04T20:45:24.799Z,12.29
2018-05-04T20:48:27.369Z,12.18
2018-05-04T20:51:29.863Z,12.16
2018-05-04T20:54:32.394Z,12.18
2018-05-04T20:57:34.881Z,12.19
2018-05-04T21:00:37.413Z,12.14
2018-05-04T21:03:39.906Z,12.03
2018-05-04T21:06:42.390Z,11.92
2018-05-04T21:09:44.863Z,11.85
2018-05-04T21:12:47.345Z,11.90
2018-05-04T21:15:49.896Z,11.88
2018-05-04T21:18:52.371Z,11.73
2018-05-04T21:21:54.875Z,11.63
2018-05-04T21:24:57.394Z,11.52
2018-05-04T21:27:59.856Z,11.39
2018-05-04T21:31:02.411Z,11.24
2018-05-04T21:34:04.925Z,11.13
2018-05-04T21:37:07.460Z,11.04
2018-05-04T21:40:09.913Z,10.93
2018-05-04T21:43:12.412Z,10.90
2018-05-04T21:46:14.876Z,10.88
2018-05-04T21:49:17.390Z,10.92
2018-05-04T21:52:20.004Z,10.86
2018-05-04T21:55:22.487Z,10.85
2018-05-04T21:58:24.934Z,10.86
2018-05-04T22:01:27.425Z,10.78
2018-05-04T22:04:29.904Z,10.77
2018-05-04T22:07:32.469Z,10.67
2018-05-04T22:10:34.958Z,10.54
2018-05-04T22:13:37.405Z,10.42
2018-05-04T22:16:39.889Z,10.30
2018-05-04T22:19:42.415Z,10.15
2018-05-04T22:22:44.927Z,10.00
2018-05-04T22:25:47.403Z,9.92
2018-05-04T22:28:49.894Z,9.86
2018-05-04T22:31:52.378Z,9.80
2018-05-04T22:34:54.922Z,9.75
2018-05-04T22:37:57.394Z,9.70
2018-05-04T22:40:59.939Z,9.67
2018-05-04T22:44:02.447Z,9.62
2018-05-04T22:47:04.959Z,9.66
2018-05-04T22:50:07.408Z,9.75
2018-05-04T22:53:09.899Z,9.74
2018-05-04T22:56:12.450Z,9.80
2018-05-04T22:59:15.048Z,9.86
2018-05-04T23:02:17.563Z,9.84
2018-05-04T23:05:20.130Z,9.89
2018-05-04T23:08:22.601Z,9.85
2018-05-04T23:11:25.072Z,9.84
2018-05-04T23:14:27.575Z,9.80
2018-05-04T23:17:30.085Z,9.78
2018-05-04T23:20:32.500Z,9.72
2018-05-04T23:23:34.973Z,9.72
2018-05-04T23:26:37.466Z,9.72
2018-05-04T23:29:39.926Z,9.70
2018-05-04T23:32:42.411Z,9.66
2018-05-04T23:35:44.904Z,9.56
2018-05-04T23:38:47.344Z,9.49
2018-05-04T23:41:49.791Z,9.29
2018-05-04T23:44:52.211Z,9.14
2018-05-04T23:47:54.714Z,9.03
2018-05-04T23:50:57.141Z,8.93
2018-05-04T23:53:59.621Z,8.89
2018-05-04T23:57:02.174Z,8.86
